Time;durP1;ratioP1;P1;durP2;ratioP2;P2;SDS_P1;SDS_P2;PMS_P1;PMS_P2;Temp;Humidity;BMP_temperature;BMP_pressure;BME280_temperature;BME280_humidity;BME280_pressure;Samples;Min_cycle;Max_cycle;Signal;HPM_P1;HPM_P2
2021/12/06 00:02:16;;;;;;;12.30;8.40;;;0.80;99.90;;;;;;5006888;28;20505;-62
2021/12/06 00:04:41;;;;;;;9.57;6.47;;;0.70;99.90;;;;;;5005847;28;20883;-62
2021/12/06 00:07:12;;;;;;;10.00;7.43;;;0.80;99.90;;;;;;5005589;28;20429;-61
2021/12/06 00:09:38;;;;;;;10.53;6.93;;;0.70;99.90;;;;;;5003704;28;20179;-62
2021/12/06 00:12:04;;;;;;;16.37;8.20;;;0.80;99.90;;;;;;5006928;28;20444;-63
2021/12/06 00:14:35;;;;;;;10.57;7.37;;;0.80;99.90;;;;;;5006271;28;20581;-63
2021/12/06 00:17:07;;;;;;;12.60;7.40;;;0.80;99.90;;;;;;5004332;28;20999;-63
2021/12/06 00:19:33;;;;;;;13.37;7.37;;;0.80;99.90;;;;;;5005102;28;20417;-61
2021/12/06 00:22:02;;;;;;;14.40;7.60;;;0.80;99.90;;;;;;5004102;28;20861;-64
2021/12/06 00:24:28;;;;;;;19.83;9.50;;;0.80;99.90;;;;;;5005995;28;20739;-63
2021/12/06 00:26:54;;;;;;;20.87;10.27;;;0.80;99.90;;;;;;5005812;28;20488;-63
2021/12/06 00:29:20;;;;;;;16.50;8.70;;;0.80;99.90;;;;;;5007283;28;20629;-63
2021/12/06 00:31:46;;;;;;;16.80;9.23;;;0.70;99.90;;;;;;5004708;28;20484;-62
2021/12/06 00:34:16;;;;;;;18.07;10.00;;;0.70;99.90;;;;;;5006850;28;20980;-62
2021/12/06 00:36:52;;;;;;;15.20;8.97;;;0.70;99.90;;;;;;5005621;28;20442;-63
2021/12/06 00:39:19;;;;;;;23.20;10.00;;;0.70;99.90;;;;;;5006943;28;20848;-62
2021/12/06 00:41:45;;;;;;;14.40;8.93;;;0.70;99.90;;;;;;5003494;28;20449;-63
2021/12/06 00:44:11;;;;;;;19.27;10.40;;;0.70;99.90;;;;;;5004577;28;20524;-63
2021/12/06 00:46:38;;;;;;;19.77;9.50;;;0.60;99.90;;;;;;5005655;28;20429;-62
2021/12/06 00:49:05;;;;;;;15.17;9.47;;;0.60;99.90;;;;;;5005417;28;20434;-63
2021/12/06 00:51:31;;;;;;;14.13;8.50;;;0.60;99.90;;;;;;5002097;28;20460;-62
2021/12/06 00:53:56;;;;;;;12.53;7.77;;;0.60;99.90;;;;;;5006849;28;20453;-62
2021/12/06 00:56:22;;;;;;;13.07;7.30;;;0.50;99.90;;;;;;5007764;28;20457;-63
2021/12/06 00:58:49;;;;;;;12.50;7.17;;;0.50;99.90;;;;;;5008018;28;20167;-62
2021/12/06 01:01:14;;;;;;;11.10;6.00;;;0.50;99.90;;;;;;5009953;28;20797;-62
2021/12/06 01:03:42;;;;;;;10.57;5.53;;;0.50;99.90;;;;;;5007870;28;20451;-63
2021/12/06 01:06:10;;;;;;;9.70;5.83;;;0.50;99.90;;;;;;5009185;28;20435;-63
2021/12/06 01:08:36;;;;;;;10.67;6.83;;;0.50;99.90;;;;;;5006249;28;20422;-63
2021/12/06 01:11:04;;;;;;;10.67;6.50;;;0.50;99.90;;;;;;5006245;28;20469;-64
2021/12/06 01:13:30;;;;;;;15.00;7.00;;;0.50;99.90;;;;;;5004200;28;20466;-63
2021/12/06 01:15:57;;;;;;;9.57;6.27;;;0.50;99.90;;;;;;5006107;28;20418;-63
2021/12/06 01:18:23;;;;;;;9.23;6.70;;;0.50;99.90;;;;;;5007125;28;20488;-64
2021/12/06 01:20:55;;;;;;;8.70;6.10;;;0.50;99.90;;;;;;5004841;28;20452;-61
2021/12/06 01:23:27;;;;;;;11.00;6.70;;;0.40;99.90;;;;;;5004817;28;20422;-63
2021/12/06 01:31:13;;;;;;;8.90;5.40;;;0.40;99.90;;;;;;5006326;28;20445;-63
2021/12/06 01:41:37;;;;;;;12.00;6.57;;;0.30;99.90;;;;;;5005657;28;20931;-61
2021/12/06 01:44:09;;;;;;;8.90;6.37;;;0.30;99.90;;;;;;5009111;28;20242;-63
2021/12/06 01:46:38;;;;;;;11.03;6.20;;;0.30;99.90;;;;;;5007723;28;20943;-61
2021/12/06 01:49:07;;;;;;;8.13;5.60;;;0.30;99.90;;;;;;5010372;28;20425;-62
2021/12/06 01:51:32;;;;;;;12.73;6.13;;;0.40;99.90;;;;;;5009474;28;20448;-63
2021/12/06 01:53:58;;;;;;;11.10;7.03;;;0.40;99.90;;;;;;5010050;28;20528;-63
2021/12/06 01:56:24;;;;;;;9.20;6.10;;;0.40;99.90;;;;;;5008205;28;20962;-64
2021/12/06 01:58:50;;;;;;;11.80;6.80;;;0.30;99.90;;;;;;5010578;28;20193;-63
2021/12/06 02:01:16;;;;;;;15.93;7.20;;;0.30;99.90;;;;;;5007617;28;20448;-65
2021/12/06 02:03:41;;;;;;;8.00;5.90;;;0.40;99.90;;;;;;5008844;28;20616;-64
2021/12/06 02:06:07;;;;;;;8.90;5.33;;;0.40;99.90;;;;;;5008642;28;20261;-64
2021/12/06 02:08:33;;;;;;;16.10;7.50;;;0.40;99.90;;;;;;5009713;28;20174;-63
2021/12/06 02:11:02;;;;;;;11.50;6.73;;;0.40;99.90;;;;;;5040220;23;21006;-60
2021/12/06 02:13:34;;;;;;;22.40;7.83;;;0.30;99.90;;;;;;5003890;28;20511;-61
2021/12/06 02:16:02;;;;;;;22.33;10.37;;;0.40;99.90;;;;;;5003357;28;20448;-59
2021/12/06 02:21:02;;;;;;;24.53;11.13;;;0.40;99.90;;;;;;5030037;28;20536;-61
2021/12/06 02:23:29;;;;;;;26.30;12.13;;;0.30;99.90;;;;;;5030728;28;20162;-60
2021/12/06 02:25:55;;;;;;;31.80;12.90;;;0.30;99.90;;;;;;5010670;28;20944;-60
2021/12/06 02:28:21;;;;;;;31.73;14.20;;;0.30;99.90;;;;;;5007915;28;20438;-57
2021/12/06 02:30:46;;;;;;;30.93;13.80;;;0.30;99.90;;;;;;5006497;28;20507;-58
2021/12/06 02:33:12;;;;;;;30.07;15.20;;;0.30;99.90;;;;;;5003649;28;20222;-60
2021/12/06 02:35:38;;;;;;;32.63;13.23;;;0.30;99.90;;;;;;5003693;28;20635;-61
2021/12/06 02:38:07;;;;;;;25.67;12.10;;;0.30;99.90;;;;;;5006578;28;20221;-61
2021/12/06 02:40:34;;;;;;;23.87;11.33;;;0.30;99.90;;;;;;5001815;28;20536;-61
2021/12/06 02:43:03;;;;;;;24.33;10.63;;;0.30;99.90;;;;;;5017537;28;20417;-58
2021/12/06 02:45:30;;;;;;;19.43;10.10;;;0.30;99.90;;;;;;5003134;28;20422;-58
2021/12/06 02:47:59;;;;;;;20.53;9.10;;;0.30;99.90;;;;;;4999657;28;20465;-58
2021/12/06 02:50:28;;;;;;;20.43;10.47;;;0.30;99.90;;;;;;5000493;28;20446;-58
2021/12/06 02:52:55;;;;;;;23.53;10.10;;;0.30;99.90;;;;;;5002977;28;20465;-58
2021/12/06 02:55:31;;;;;;;27.17;11.27;;;0.30;99.90;;;;;;5002576;28;20531;-59
2021/12/06 02:58:02;;;;;;;30.57;13.87;;;0.30;99.90;;;;;;5003667;28;20559;-58
2021/12/06 03:00:28;;;;;;;28.60;12.40;;;0.30;99.90;;;;;;5003452;28;20784;-58
2021/12/06 03:02:54;;;;;;;25.57;11.00;;;0.30;99.90;;;;;;5000860;28;20552;-57
2021/12/06 03:05:20;;;;;;;28.27;12.20;;;0.30;99.90;;;;;;5000626;28;20435;-59
2021/12/06 03:07:52;;;;;;;31.00;12.60;;;0.30;99.90;;;;;;5002856;28;20445;-58
2021/12/06 03:10:18;;;;;;;28.00;13.03;;;0.30;99.90;;;;;;5003241;28;20807;-59
2021/12/06 03:12:44;;;;;;;27.97;12.57;;;0.30;99.90;;;;;;5003291;28;20465;-59
2021/12/06 03:15:11;;;;;;;23.63;11.60;;;0.30;99.90;;;;;;5002609;28;20827;-59
2021/12/06 03:17:36;;;;;;;23.50;10.87;;;0.30;99.90;;;;;;5003734;28;20445;-58
2021/12/06 03:20:06;;;;;;;22.10;11.20;;;0.30;99.90;;;;;;5004130;28;20440;-59
2021/12/06 03:22:32;;;;;;;22.30;10.83;;;0.30;99.90;;;;;;5007694;28;20266;-60
2021/12/06 03:24:58;;;;;;;18.73;10.07;;;0.30;99.90;;;;;;5019295;28;20445;-60
2021/12/06 03:27:24;;;;;;;25.00;11.13;;;0.40;99.90;;;;;;5021322;28;20191;-59
2021/12/06 03:29:50;;;;;;;22.80;10.60;;;0.40;99.90;;;;;;5003715;28;20205;-57
2021/12/06 03:32:15;;;;;;;23.60;11.10;;;0.30;99.90;;;;;;5005459;28;20447;-59
2021/12/06 03:34:41;;;;;;;21.40;10.20;;;0.30;99.90;;;;;;5004887;28;20214;-59
2021/12/06 03:37:08;;;;;;;19.47;9.40;;;0.30;99.90;;;;;;5003730;28;20260;-58
2021/12/06 03:39:39;;;;;;;20.37;9.40;;;0.30;99.90;;;;;;5005078;28;20438;-58
2021/12/06 03:42:08;;;;;;;18.13;9.63;;;0.30;99.90;;;;;;5000710;28;20453;-57
2021/12/06 03:44:34;;;;;;;22.20;10.77;;;0.20;99.90;;;;;;5018872;28;20448;-59
2021/12/06 03:47:10;;;;;;;21.80;10.63;;;0.20;99.90;;;;;;5000931;28;20427;-59
2021/12/06 03:49:36;;;;;;;18.93;9.47;;;0.20;99.90;;;;;;5001361;28;20445;-58
2021/12/06 03:52:04;;;;;;;19.43;10.20;;;0.30;99.90;;;;;;5003567;28;20450;-58
2021/12/06 03:54:31;;;;;;;20.57;9.67;;;0.30;99.90;;;;;;5017379;28;20457;-59
2021/12/06 03:56:57;;;;;;;18.60;8.97;;;0.20;99.90;;;;;;4998384;28;20457;-59
2021/12/06 03:59:24;;;;;;;16.80;9.17;;;0.20;99.90;;;;;;5004145;28;20437;-60
2021/12/06 04:01:50;;;;;;;17.93;8.10;;;0.20;99.90;;;;;;5002471;28;20960;-57
2021/12/06 04:04:16;;;;;;;14.70;8.03;;;0.20;99.90;;;;;;5004817;28;20495;-61
2021/12/06 04:06:42;;;;;;;20.90;8.60;;;0.10;99.90;;;;;;5003100;28;20460;-58
2021/12/06 04:09:09;;;;;;;21.90;10.20;;;0.10;99.90;;;;;;5004563;28;20461;-60
2021/12/06 04:11:36;;;;;;;20.70;9.70;;;0.20;99.90;;;;;;5003091;28;20607;-60
2021/12/06 04:14:03;;;;;;;15.97;9.10;;;0.20;99.90;;;;;;5006696;28;20496;-58
2021/12/06 04:16:29;;;;;;;16.87;9.40;;;0.20;99.90;;;;;;5022751;28;20444;-59
2021/12/06 04:18:55;;;;;;;19.33;9.50;;;0.20;99.90;;;;;;5010786;28;20433;-58
2021/12/06 04:21:22;;;;;;;18.67;9.50;;;0.20;99.90;;;;;;5008349;28;20438;-60
2021/12/06 04:23:47;;;;;;;16.77;8.80;;;0.20;99.90;;;;;;5013761;28;20178;-58
2021/12/06 04:26:13;;;;;;;19.37;8.47;;;0.20;99.90;;;;;;5011734;28;20944;-62
2021/12/06 04:28:47;;;;;;;17.77;8.10;;;0.20;99.90;;;;;;5004439;28;20577;-59
2021/12/06 04:31:12;;;;;;;19.77;9.00;;;0.20;99.90;;;;;;5004376;28;20518;-60
2021/12/06 04:33:38;;;;;;;18.80;9.17;;;0.10;99.90;;;;;;5003515;28;20527;-59
2021/12/06 04:36:04;;;;;;;15.90;7.87;;;0.20;99.90;;;;;;5001680;28;20574;-59
2021/12/06 04:38:29;;;;;;;15.30;8.13;;;0.20;99.90;;;;;;4999649;28;20182;-59
2021/12/06 04:40:55;;;;;;;20.27;9.37;;;0.20;99.90;;;;;;5000055;28;20206;-59
2021/12/06 04:43:21;;;;;;;22.93;10.03;;;0.10;99.90;;;;;;5000422;28;20279;-58
2021/12/06 04:45:47;;;;;;;18.80;9.67;;;0.10;99.90;;;;;;4997936;28;20278;-59
2021/12/06 04:48:12;;;;;;;23.80;9.80;;;0.10;99.90;;;;;;4999014;28;20229;-58
2021/12/06 04:50:40;;;;;;;24.07;10.27;;;0.10;99.90;;;;;;5001059;28;20186;-60
2021/12/06 04:53:14;;;;;;;21.50;10.20;;;0.10;99.90;;;;;;5001197;28;20676;-59
2021/12/06 04:55:48;;;;;;;19.90;10.17;;;0.10;99.90;;;;;;5000133;28;20443;-59
2021/12/06 04:58:18;;;;;;;20.30;10.00;;;0.20;99.90;;;;;;5003488;28;20437;-61
2021/12/06 05:01:06;;;;;;;20.80;9.70;;;0.10;99.90;;;;;;5003326;28;20533;-59
2021/12/06 05:03:33;;;;;;;21.93;10.57;;;0.20;99.90;;;;;;5002103;28;20810;-59
2021/12/06 05:06:03;;;;;;;21.97;10.30;;;0.20;99.90;;;;;;5003349;28;20437;-58
2021/12/06 05:08:39;;;;;;;23.03;11.00;;;0.20;99.90;;;;;;4998968;28;20495;-59
2021/12/06 05:11:06;;;;;;;22.23;10.70;;;0.20;99.90;;;;;;5000750;28;20555;-58
2021/12/06 05:13:35;;;;;;;30.07;12.40;;;0.30;99.90;;;;;;5003164;28;21133;-59
2021/12/06 05:16:01;;;;;;;23.13;11.10;;;0.30;99.90;;;;;;5005076;28;20442;-61
2021/12/06 05:18:27;;;;;;;27.37;12.60;;;0.30;99.90;;;;;;5007433;28;20517;-63
2021/12/06 05:20:53;;;;;;;24.43;10.47;;;0.30;99.90;;;;;;5003697;28;22516;-62
2021/12/06 05:23:20;;;;;;;25.20;12.03;;;0.30;99.90;;;;;;4999566;28;20457;-60
2021/12/06 05:25:46;;;;;;;23.60;11.80;;;0.40;99.90;;;;;;5003579;28;20441;-61
2021/12/06 05:28:12;;;;;;;23.47;11.30;;;0.30;99.90;;;;;;5001532;28;20455;-59
2021/12/06 05:30:39;;;;;;;24.30;10.10;;;0.30;99.90;;;;;;5003617;28;20801;-58
2021/12/06 05:33:07;;;;;;;31.70;13.37;;;0.30;99.90;;;;;;5004632;28;20265;-59
2021/12/06 05:35:33;;;;;;;23.70;10.93;;;0.30;99.90;;;;;;4998630;28;20438;-61
2021/12/06 05:38:00;;;;;;;21.23;9.60;;;0.30;99.90;;;;;;5000893;28;20470;-60
2021/12/06 05:40:33;;;;;;;17.97;9.23;;;0.30;99.90;;;;;;5001142;28;20575;-59
2021/12/06 05:43:01;;;;;;;27.00;10.50;;;0.30;99.90;;;;;;5004949;28;20771;-60
2021/12/06 05:45:31;;;;;;;24.37;10.53;;;0.30;99.90;;;;;;4999848;28;20758;-59
2021/12/06 05:47:56;;;;;;;24.00;10.73;;;0.30;99.90;;;;;;5000660;28;20435;-60
2021/12/06 05:50:23;;;;;;;27.97;10.53;;;0.30;99.90;;;;;;5001429;28;20432;-62
2021/12/06 05:52:52;;;;;;;20.93;10.17;;;0.30;99.90;;;;;;5001002;28;20585;-60
2021/12/06 05:55:19;;;;;;;19.83;10.37;;;0.30;99.90;;;;;;5003751;28;20822;-54
2021/12/06 05:57:45;;;;;;;22.40;11.77;;;0.20;99.90;;;;;;4994384;28;21383;-61
2021/12/06 06:00:14;;;;;;;25.67;11.70;;;0.20;99.90;;;;;;4993109;28;20978;-57
2021/12/06 06:02:40;;;;;;;20.57;10.70;;;0.30;99.90;;;;;;5003259;28;20499;-58
2021/12/06 06:05:06;;;;;;;27.20;11.77;;;0.30;99.90;;;;;;5011780;28;20409;-61
2021/12/06 06:07:32;;;;;;;26.90;12.87;;;0.30;99.90;;;;;;5009759;28;20437;-60
2021/12/06 06:09:58;;;;;;;30.40;14.40;;;0.30;99.90;;;;;;5010222;28;20457;-59
2021/12/06 06:12:23;;;;;;;28.43;12.53;;;0.30;99.90;;;;;;5004906;28;20218;-59
2021/12/06 06:14:49;;;;;;;22.90;11.90;;;0.40;99.90;;;;;;5006245;28;20215;-62
2021/12/06 06:17:18;;;;;;;28.13;13.10;;;0.40;99.90;;;;;;5005826;28;20260;-58
2021/12/06 06:19:52;;;;;;;27.27;13.00;;;0.40;99.90;;;;;;4986343;28;20737;-60
2021/12/06 06:22:19;;;;;;;26.80;13.20;;;0.40;99.90;;;;;;5005425;28;20438;-60
2021/12/06 06:24:45;;;;;;;27.80;13.00;;;0.40;99.90;;;;;;5003611;28;20819;-58
2021/12/06 06:27:10;;;;;;;28.43;13.07;;;0.40;99.90;;;;;;4986416;28;20504;-60
2021/12/06 06:29:36;;;;;;;22.90;11.33;;;0.40;99.90;;;;;;4990446;28;20709;-58
2021/12/06 06:32:04;;;;;;;29.87;12.93;;;0.40;99.90;;;;;;5006734;28;20208;-64
2021/12/06 06:34:30;;;;;;;28.20;12.60;;;0.40;99.90;;;;;;5009529;28;20464;-60
2021/12/06 06:36:56;;;;;;;27.13;12.00;;;0.40;99.90;;;;;;5008816;28;20422;-61
2021/12/06 06:39:22;;;;;;;22.93;11.83;;;0.40;99.90;;;;;;5009377;28;20179;-62
2021/12/06 06:41:52;;;;;;;26.87;12.83;;;0.40;99.90;;;;;;5008615;28;20850;-61
2021/12/06 06:44:20;;;;;;;32.50;12.73;;;0.40;99.90;;;;;;5009709;28;20422;-59
2021/12/06 06:46:47;;;;;;;26.57;11.73;;;0.40;99.90;;;;;;5009373;28;20929;-60
2021/12/06 06:49:13;;;;;;;25.70;12.00;;;0.40;99.90;;;;;;5008542;28;20800;-60
2021/12/06 06:51:39;;;;;;;24.33;10.90;;;0.40;99.90;;;;;;5005016;28;20464;-60
2021/12/06 06:54:06;;;;;;;24.13;11.17;;;0.40;99.90;;;;;;5003455;28;20476;-60
2021/12/06 06:56:32;;;;;;;23.43;11.37;;;0.30;99.90;;;;;;5007550;28;20433;-59
2021/12/06 06:58:58;;;;;;;23.07;11.13;;;0.40;99.90;;;;;;5007679;28;20429;-60
2021/12/06 07:01:24;;;;;;;26.27;11.87;;;0.30;99.90;;;;;;5002420;28;20700;-56
2021/12/06 07:03:53;;;;;;;21.87;11.20;;;0.40;99.90;;;;;;5008028;28;20424;-59
2021/12/06 07:06:20;;;;;;;27.10;11.70;;;0.30;99.90;;;;;;5008440;28;20513;-62
2021/12/06 07:08:46;;;;;;;28.37;11.63;;;0.30;99.90;;;;;;5006682;28;20526;-61
2021/12/06 07:11:12;;;;;;;21.90;10.00;;;0.30;99.90;;;;;;5007089;28;20473;-59
2021/12/06 07:13:39;;;;;;;28.30;11.50;;;0.30;99.90;;;;;;5004564;28;21000;-59
2021/12/06 07:16:09;;;;;;;22.83;10.60;;;0.30;99.90;;;;;;5008596;28;20183;-59
2021/12/06 07:18:35;;;;;;;25.93;12.13;;;0.30;99.90;;;;;;5008105;28;20959;-60
2021/12/06 07:21:01;;;;;;;35.30;12.30;;;0.40;99.90;;;;;;4999916;28;20540;-57
2021/12/06 07:23:27;;;;;;;22.67;11.10;;;0.40;99.90;;;;;;5004395;28;20528;-57
2021/12/06 07:25:52;;;;;;;24.70;11.43;;;0.40;99.90;;;;;;5006454;28;20557;-62
2021/12/06 07:28:19;;;;;;;31.73;12.20;;;0.40;99.90;;;;;;5001938;28;20754;-60
2021/12/06 07:30:44;;;;;;;25.77;11.73;;;0.40;99.90;;;;;;5010381;28;20183;-61
2021/12/06 07:33:10;;;;;;;21.93;10.10;;;0.40;99.90;;;;;;5018345;28;20526;-60
2021/12/06 07:35:36;;;;;;;25.90;11.70;;;0.40;99.90;;;;;;5009868;28;20353;-58
2021/12/06 07:38:03;;;;;;;28.37;12.63;;;0.50;99.90;;;;;;5000708;28;20176;-61
2021/12/06 07:40:31;;;;;;;25.10;11.67;;;0.50;99.90;;;;;;5008353;28;20206;-58
2021/12/06 07:42:57;;;;;;;23.23;11.97;;;0.50;99.90;;;;;;5005686;28;20515;-62
2021/12/06 07:45:23;;;;;;;31.80;12.50;;;0.50;99.90;;;;;;5005811;28;20767;-58
2021/12/06 07:47:49;;;;;;;24.27;11.87;;;0.50;99.90;;;;;;5006957;28;20448;-61
2021/12/06 07:50:18;;;;;;;25.23;13.13;;;0.50;99.90;;;;;;5010261;28;20436;-59
2021/12/06 07:52:44;;;;;;;30.30;13.00;;;0.50;99.90;;;;;;5006859;28;20224;-60
2021/12/06 07:55:13;;;;;;;27.07;12.73;;;0.60;99.90;;;;;;5007497;28;20548;-60
2021/12/06 07:57:40;;;;;;;29.30;11.77;;;0.60;99.90;;;;;;5006314;28;20449;-60
2021/12/06 08:00:10;;;;;;;30.87;13.43;;;0.60;99.90;;;;;;5004702;28;20577;-62
2021/12/06 08:02:37;;;;;;;30.93;13.03;;;0.70;99.90;;;;;;5005215;28;20585;-60
2021/12/06 08:07:48;;;;;;;33.00;14.40;;;0.70;99.90;;;;;;5011974;28;20979;-60
2021/12/06 08:10:14;;;;;;;29.83;13.60;;;0.70;99.90;;;;;;5008952;28;20418;-59
2021/12/06 08:12:40;;;;;;;23.47;13.13;;;0.70;99.90;;;;;;5027347;22;20222;-61
2021/12/06 08:15:07;;;;;;;30.13;12.87;;;0.80;99.90;;;;;;4986507;28;20521;-61
2021/12/06 08:17:33;;;;;;;30.37;14.53;;;0.80;99.90;;;;;;4996763;28;20446;-60
2021/12/06 08:19:58;;;;;;;28.07;13.83;;;0.80;99.90;;;;;;4987719;28;20957;-60
2021/12/06 08:22:24;;;;;;;30.17;14.50;;;0.80;99.90;;;;;;4984782;28;20203;-60
2021/12/06 08:24:50;;;;;;;27.60;12.73;;;0.80;99.90;;;;;;4983117;28;20199;-60
2021/12/06 08:27:15;;;;;;;28.03;11.77;;;0.80;99.90;;;;;;4973675;28;20284;-60
2021/12/06 08:29:42;;;;;;;27.87;13.33;;;0.80;99.90;;;;;;4981181;28;20190;-61
2021/12/06 08:32:09;;;;;;;29.90;12.83;;;0.80;99.90;;;;;;4985183;28;20200;-60
2021/12/06 08:34:34;;;;;;;34.73;13.93;;;0.90;99.90;;;;;;4985879;28;21017;-60
2021/12/06 08:37:01;;;;;;;26.87;13.37;;;0.90;99.90;;;;;;4977377;28;20425;-61
2021/12/06 08:39:27;;;;;;;28.73;14.27;;;1.00;99.90;;;;;;4974972;28;20179;-61
2021/12/06 08:41:53;;;;;;;28.63;12.90;;;1.00;99.90;;;;;;4976619;28;20443;-61
2021/12/06 08:44:19;;;;;;;24.23;11.90;;;1.00;99.90;;;;;;4988717;28;20556;-61
2021/12/06 08:46:45;;;;;;;27.00;13.03;;;1.00;99.90;;;;;;4988797;28;20175;-61
2021/12/06 08:49:11;;;;;;;24.73;12.73;;;1.00;99.90;;;;;;4987338;28;20267;-60
2021/12/06 08:51:42;;;;;;;26.37;12.47;;;1.00;99.90;;;;;;4980177;28;20534;-60
2021/12/06 08:54:09;;;;;;;23.83;11.30;;;1.00;99.90;;;;;;4988419;28;20525;-61
2021/12/06 08:56:36;;;;;;;32.07;12.53;;;1.00;99.90;;;;;;4988760;28;20411;-61
2021/12/06 08:59:04;;;;;;;27.90;12.27;;;1.10;99.90;;;;;;4974633;28;20425;-61
2021/12/06 09:01:29;;;;;;;27.93;13.73;;;1.10;99.90;;;;;;4977855;28;20527;-60
2021/12/06 09:03:56;;;;;;;27.40;12.80;;;1.20;99.90;;;;;;4988715;28;20836;-61
2021/12/06 09:06:22;;;;;;;31.03;13.33;;;1.20;99.90;;;;;;4985693;28;20474;-61
2021/12/06 09:08:47;;;;;;;24.57;12.60;;;1.30;99.90;;;;;;4985729;28;20777;-60
2021/12/06 09:11:13;;;;;;;29.30;14.40;;;1.30;99.90;;;;;;4986851;28;20183;-61
2021/12/06 09:13:41;;;;;;;28.57;14.83;;;1.40;99.90;;;;;;4989586;28;20466;-61
2021/12/06 09:16:08;;;;;;;32.57;14.50;;;1.50;99.90;;;;;;4984710;28;20439;-62
2021/12/06 09:18:37;;;;;;;25.63;11.80;;;1.50;99.90;;;;;;4973180;28;20419;-61
2021/12/06 09:21:07;;;;;;;20.43;10.33;;;1.60;99.90;;;;;;4979059;28;20915;-61
2021/12/06 09:23:34;;;;;;;18.03;8.70;;;1.70;99.90;;;;;;4969041;28;20440;-61
2021/12/06 09:26:00;;;;;;;17.20;9.40;;;1.70;99.90;;;;;;4969149;28;20437;-62
2021/12/06 09:28:28;;;;;;;20.17;8.83;;;1.70;99.90;;;;;;4970165;28;20421;-61
2021/12/06 09:30:54;;;;;;;17.07;9.00;;;1.80;99.90;;;;;;4980616;28;20727;-60
2021/12/06 09:33:22;;;;;;;18.97;7.83;;;1.80;99.90;;;;;;4983970;28;20490;-62
2021/12/06 09:35:49;;;;;;;12.90;6.37;;;1.80;99.90;;;;;;4998114;28;20973;-61
2021/12/06 09:38:20;;;;;;;12.10;6.50;;;1.80;99.90;;;;;;4982406;28;20419;-61
2021/12/06 09:40:52;;;;;;;22.07;7.03;;;1.80;99.90;;;;;;4984787;28;20402;-61
2021/12/06 09:43:18;;;;;;;8.97;5.90;;;1.80;99.90;;;;;;4985389;28;20458;-62
2021/12/06 09:45:45;;;;;;;11.67;6.30;;;1.90;99.90;;;;;;4987528;28;20459;-60
2021/12/06 09:48:15;;;;;;;15.60;6.40;;;1.90;99.90;;;;;;4985890;28;20785;-59
2021/12/06 09:50:54;;;;;;;9.87;6.13;;;2.00;99.90;;;;;;4985052;28;20423;-61
2021/12/06 09:53:22;;;;;;;9.33;6.13;;;2.00;99.90;;;;;;4987352;28;20984;-60
2021/12/06 09:55:50;;;;;;;9.90;6.00;;;2.10;99.90;;;;;;4987773;28;20470;-62
2021/12/06 09:58:17;;;;;;;14.23;5.20;;;2.10;99.90;;;;;;4969115;28;20435;-62
2021/12/06 10:00:49;;;;;;;11.83;5.33;;;2.10;99.90;;;;;;4983464;28;20436;-61
2021/12/06 10:03:18;;;;;;;12.90;5.60;;;2.10;99.90;;;;;;4974182;28;20445;-61
2021/12/06 10:05:44;;;;;;;8.87;5.47;;;2.20;99.90;;;;;;4986084;28;20436;-61
2021/12/06 10:08:10;;;;;;;9.07;5.70;;;2.20;99.90;;;;;;4990422;28;20415;-62
2021/12/06 10:10:36;;;;;;;11.67;6.17;;;2.20;99.90;;;;;;4990270;28;20428;-61
2021/12/06 10:13:03;;;;;;;11.50;6.10;;;2.10;99.90;;;;;;4986236;28;20214;-60
2021/12/06 10:15:30;;;;;;;9.77;6.50;;;2.10;99.90;;;;;;4984663;28;20281;-62
2021/12/06 10:17:58;;;;;;;11.53;6.10;;;2.00;99.90;;;;;;4991192;28;20448;-61
2021/12/06 10:20:27;;;;;;;9.10;5.93;;;2.00;99.90;;;;;;4982327;28;20722;-59
2021/12/06 10:22:54;;;;;;;14.17;7.70;;;2.00;99.90;;;;;;4985401;28;20446;-61
2021/12/06 10:25:21;;;;;;;10.77;7.30;;;2.00;99.90;;;;;;4991482;28;20411;-60
2021/12/06 10:27:55;;;;;;;9.20;6.70;;;2.10;99.90;;;;;;4991405;28;20412;-59
2021/12/06 10:30:23;;;;;;;11.87;6.77;;;2.20;99.90;;;;;;4987350;28;20436;-61
2021/12/06 10:32:49;;;;;;;10.23;7.10;;;2.30;99.90;;;;;;4986175;28;20442;-60
2021/12/06 10:35:16;;;;;;;9.63;6.27;;;2.50;99.90;;;;;;4991045;28;20456;-60
2021/12/06 10:37:48;;;;;;;8.73;5.57;;;2.70;99.90;;;;;;4987188;28;20180;-59
2021/12/06 10:40:39;;;;;;;9.80;5.60;;;2.80;99.90;;;;;;4985546;28;20424;-61
2021/12/06 10:43:09;;;;;;;11.37;6.50;;;2.90;99.90;;;;;;4990134;28;22301;-61
2021/12/06 10:45:42;;;;;;;10.37;6.10;;;3.00;99.90;;;;;;4991269;28;20840;-61
2021/12/06 10:48:08;;;;;;;10.00;6.27;;;2.90;99.90;;;;;;4979209;28;20446;-60
2021/12/06 10:50:35;;;;;;;8.73;6.17;;;2.80;99.90;;;;;;4971468;28;20425;-60
2021/12/06 10:53:04;;;;;;;9.43;6.23;;;2.80;99.90;;;;;;4971375;28;20744;-61
2021/12/06 10:55:32;;;;;;;9.27;5.43;;;2.80;99.90;;;;;;4981500;28;20462;-59
2021/12/06 10:58:05;;;;;;;9.23;5.80;;;2.80;99.90;;;;;;4999239;28;20507;-61
2021/12/06 11:00:41;;;;;;;11.40;6.30;;;2.80;99.90;;;;;;4984343;28;20400;-61
2021/12/06 11:03:36;;;;;;;8.80;5.90;;;2.70;99.90;;;;;;4984153;28;20455;-60
2021/12/06 11:06:12;;;;;;;10.93;5.47;;;2.70;99.90;;;;;;4970294;28;20410;-61
2021/12/06 11:08:40;;;;;;;9.60;5.80;;;2.60;99.90;;;;;;4971529;28;20451;-61
2021/12/06 11:11:12;;;;;;;9.10;6.27;;;2.60;99.90;;;;;;4976182;28;20415;-62
2021/12/06 11:13:44;;;;;;;10.37;5.77;;;2.60;99.90;;;;;;4987886;28;20642;-61
2021/12/06 11:16:31;;;;;;;8.30;5.07;;;2.60;99.90;;;;;;4990473;28;20419;-59
2021/12/06 11:18:57;;;;;;;9.00;5.20;;;2.60;99.90;;;;;;4990655;28;20423;-61
2021/12/06 11:21:47;;;;;;;7.30;4.80;;;2.60;99.90;;;;;;4987020;28;20822;-60
2021/12/06 11:24:23;;;;;;;7.93;5.03;;;2.60;99.90;;;;;;4980095;28;20197;-60
2021/12/06 11:26:52;;;;;;;8.20;5.20;;;2.70;99.90;;;;;;4990305;28;20459;-60
2021/12/06 11:29:37;;;;;;;8.10;5.13;;;2.70;99.90;;;;;;4988283;28;20943;-60
2021/12/06 11:32:14;;;;;;;11.93;5.90;;;2.70;99.90;;;;;;4993116;28;20453;-61
2021/12/06 11:34:56;;;;;;;6.87;5.37;;;2.80;99.90;;;;;;4987722;28;21010;-61
2021/12/06 11:37:26;;;;;;;7.00;5.00;;;2.80;99.90;;;;;;5002864;28;20432;-61
2021/12/06 11:40:13;;;;;;;8.20;5.17;;;2.80;99.90;;;;;;4985804;28;20436;-61
2021/12/06 11:43:00;;;;;;;5.77;4.90;;;2.80;99.90;;;;;;4988577;28;20479;-60
2021/12/06 11:45:48;;;;;;;7.00;4.63;;;2.80;99.90;;;;;;4986731;28;20416;-62
2021/12/06 11:48:18;;;;;;;6.50;4.80;;;2.70;99.90;;;;;;4998339;28;20746;-61
2021/12/06 11:50:49;;;;;;;7.53;4.77;;;2.70;99.90;;;;;;4987894;28;20483;-62
2021/12/06 11:53:17;;;;;;;6.70;4.03;;;2.60;99.90;;;;;;5004392;28;20879;-58
2021/12/06 11:55:47;;;;;;;5.77;4.20;;;2.60;99.90;;;;;;4979299;28;20440;-62
2021/12/06 11:58:35;;;;;;;9.30;5.00;;;2.60;99.90;;;;;;4984153;28;20436;-62
2021/12/06 12:01:11;;;;;;;6.23;4.33;;;2.60;99.90;;;;;;4973854;28;20439;-62
2021/12/06 12:03:39;;;;;;;7.53;4.90;;;2.60;99.90;;;;;;4998402;28;21376;-60
2021/12/06 12:06:20;;;;;;;7.50;4.57;;;2.70;99.90;;;;;;4977232;28;20634;-61
2021/12/06 12:08:46;;;;;;;9.30;3.73;;;2.70;99.90;;;;;;4983457;28;20459;-60
2021/12/06 12:11:12;;;;;;;5.47;4.07;;;2.80;99.90;;;;;;4981136;28;21278;-63
2021/12/06 12:13:38;;;;;;;6.40;3.93;;;2.90;99.90;;;;;;4985040;28;20752;-61
2021/12/06 12:16:10;;;;;;;9.70;3.80;;;3.00;99.90;;;;;;4984658;28;20555;-62
2021/12/06 12:18:41;;;;;;;5.97;4.53;;;3.10;99.90;;;;;;4978356;28;20434;-62
2021/12/06 12:21:08;;;;;;;4.73;3.87;;;3.20;99.90;;;;;;4983498;28;20428;-62
2021/12/06 12:23:34;;;;;;;4.30;3.67;;;3.30;99.10;;;;;;4983254;28;20467;-61
2021/12/06 12:26:06;;;;;;;5.30;3.43;;;3.40;98.40;;;;;;4980928;28;20433;-61
2021/12/06 12:29:25;;;;;;;4.07;3.50;;;3.40;98.30;;;;;;4998418;28;20531;-62
2021/12/06 12:31:23;;;;;;;6.33;3.70;;;3.50;97.40;;;;;;4976580;28;20447;-61
2021/12/06 12:33:50;;;;;;;3.90;3.40;;;3.50;98.10;;;;;;4984310;28;20839;-59
2021/12/06 12:36:21;;;;;;;4.17;3.77;;;3.60;97.50;;;;;;4982133;28;20428;-63
2021/12/06 12:38:49;;;;;;;5.47;3.90;;;3.60;97.30;;;;;;4984457;28;20424;-61
2021/12/06 12:41:17;;;;;;;4.20;3.77;;;3.60;96.80;;;;;;4985573;28;21258;-62
2021/12/06 12:43:51;;;;;;;8.23;3.90;;;3.60;96.50;;;;;;4982948;28;20456;-62
2021/12/06 12:46:19;;;;;;;3.40;3.03;;;3.50;97.40;;;;;;4985196;28;20422;-62
2021/12/06 12:48:57;;;;;;;4.13;3.37;;;3.50;97.50;;;;;;4981597;28;20426;-61
2021/12/06 12:51:52;;;;;;;6.30;3.43;;;3.40;97.60;;;;;;4980545;28;20490;-62
2021/12/06 12:54:28;;;;;;;4.30;3.30;;;3.40;97.60;;;;;;4981717;28;20456;-63
2021/12/06 12:57:00;;;;;;;3.47;2.90;;;3.50;98.00;;;;;;4985255;28;20435;-62
2021/12/06 12:59:32;;;;;;;3.97;3.57;;;3.60;97.70;;;;;;4980315;28;20424;-62
2021/12/06 13:02:17;;;;;;;4.87;3.60;;;3.60;98.20;;;;;;4984192;28;20450;-62
2021/12/06 13:04:59;;;;;;;4.93;3.57;;;3.70;98.00;;;;;;4985913;28;20431;-62
2021/12/06 13:07:27;;;;;;;4.07;3.40;;;3.80;97.30;;;;;;4983851;28;20845;-62
2021/12/06 13:09:55;;;;;;;10.07;3.03;;;3.80;96.20;;;;;;4986678;28;20436;-62
2021/12/06 13:12:21;;;;;;;3.87;2.63;;;3.80;94.40;;;;;;4986174;28;20502;-61